EKGL weather

Gørløse Glider Field
Gørløse, Capital Region, Denmark

Public forecast

Using degrees Celsius for public forecast. Weather courtesy of forecast.io.

Closest aviation weather report (METAR) to Gørløse Glider Field

Closest report is Copenhagen Roskilde Airport, 18.3 nm (33.9 km) S. Retrieved 2020/04/08 08:20 UTC (27 minutes ago):

EKRK 080820Z AUTO 18009KT 150V210 9999 NCD 13/04 Q1029

Closest aviation forecast (TAF) to Gørløse Glider Field

Closest forecast is Copenhagen Kastrup Airport, 21.6 nm (40.0 km) SE. Retrieved 2020/04/08 06:00 UTC (3 hours ago):

TAF EKCH 080510Z 0806/0906 17008KT CAVOK BECMG 0821/0824 30012KT TEMPO 0903/0906 BKN012